createdAt,value
2023-09-15T00:02:14.810Z,8.40
2023-09-15T00:04:41.676Z,8.80
2023-09-15T00:07:08.510Z,10.27
2023-09-15T00:09:35.373Z,9.18
2023-09-15T00:12:02.260Z,9.65
2023-09-15T00:14:32.285Z,9.52
2023-09-15T00:16:59.769Z,9.05
2023-09-15T00:19:26.777Z,9.43
2023-09-15T00:21:53.626Z,9.13
2023-09-15T00:24:20.560Z,9.55
2023-09-15T00:26:47.535Z,9.00
2023-09-15T00:29:14.700Z,9.35
2023-09-15T00:31:47.563Z,8.82
2023-09-15T00:34:14.387Z,9.30
2023-09-15T00:36:41.347Z,8.48
2023-09-15T00:39:08.204Z,8.40
2023-09-15T00:41:35.245Z,8.30
2023-09-15T00:44:02.003Z,8.40
2023-09-15T00:46:38.997Z,8.15
2023-09-15T00:49:11.048Z,8.88
2023-09-15T00:51:37.920Z,8.50
2023-09-15T00:54:05.162Z,11.38
2023-09-15T00:56:33.300Z,8.35
2023-09-15T00:59:00.257Z,9.60
2023-09-15T01:01:27.437Z,8.38
2023-09-15T01:03:54.743Z,8.63
2023-09-15T01:06:23.552Z,10.02
2023-09-15T01:08:50.947Z,10.38
2023-09-15T01:11:17.923Z,8.30
2023-09-15T01:13:44.972Z,8.70
2023-09-15T01:16:25.523Z,7.93
2023-09-15T01:19:20.709Z,8.68
2023-09-15T01:21:56.554Z,8.27
2023-09-15T01:24:59.535Z,8.30
2023-09-15T01:27:55.351Z,8.50
2023-09-15T01:30:24.914Z,7.90
2023-09-15T01:32:56.532Z,7.63
2023-09-15T01:35:26.695Z,8.13
2023-09-15T01:37:53.696Z,8.35
2023-09-15T01:40:20.577Z,8.13
2023-09-15T01:42:50.314Z,8.05
2023-09-15T01:45:19.264Z,8.10
2023-09-15T01:47:49.335Z,8.07
2023-09-15T01:50:17.781Z,9.18
2023-09-15T01:52:46.449Z,8.88
2023-09-15T01:55:14.558Z,10.00
2023-09-15T01:57:48.163Z,10.15
2023-09-15T02:00:15.379Z,9.90
2023-09-15T02:02:51.323Z,9.90
2023-09-15T02:05:25.016Z,9.82
2023-09-15T02:07:54.775Z,10.75
2023-09-15T02:10:30.615Z,10.57
2023-09-15T02:13:04.533Z,11.10
2023-09-15T02:15:32.204Z,11.25
2023-09-15T02:17:59.241Z,10.75
2023-09-15T02:20:26.372Z,10.88
2023-09-15T02:22:53.183Z,10.23
2023-09-15T02:25:21.246Z,9.77
2023-09-15T02:27:48.158Z,10.45
2023-09-15T02:30:15.059Z,9.40
2023-09-15T02:32:41.950Z,9.18
2023-09-15T02:35:11.754Z,10.80
2023-09-15T02:37:39.526Z,9.50
2023-09-15T02:40:07.752Z,10.73
2023-09-15T02:42:34.818Z,9.35
2023-09-15T02:45:02.950Z,9.70
2023-09-15T02:47:33.956Z,10.30
2023-09-15T02:50:00.869Z,9.25
2023-09-15T02:52:27.767Z,10.82
2023-09-15T02:54:55.189Z,9.77
2023-09-15T02:57:24.892Z,10.50
2023-09-15T02:59:57.044Z,9.80
2023-09-15T03:02:31.804Z,9.63
2023-09-15T03:04:59.018Z,10.50
2023-09-15T03:07:30.481Z,9.65
2023-09-15T03:09:58.485Z,9.57
2023-09-15T03:12:32.337Z,9.45
2023-09-15T03:15:10.351Z,9.43
2023-09-15T03:17:41.748Z,9.60
2023-09-15T03:20:12.126Z,8.48
2023-09-15T03:22:39.140Z,8.88
2023-09-15T03:25:12.820Z,8.25
2023-09-15T03:27:41.015Z,8.65
2023-09-15T03:30:08.201Z,7.82
2023-09-15T03:32:38.224Z,8.10
2023-09-15T03:35:06.789Z,9.65
2023-09-15T03:37:33.854Z,8.77
2023-09-15T03:40:01.163Z,9.63
2023-09-15T03:42:31.300Z,10.23
2023-09-15T03:44:59.048Z,11.77
2023-09-15T03:47:25.852Z,10.70
2023-09-15T03:49:52.902Z,12.77
2023-09-15T03:52:19.833Z,11.00
2023-09-15T03:54:46.718Z,10.13
2023-09-15T03:57:17.796Z,9.30
2023-09-15T03:59:44.672Z,11.77
2023-09-15T04:02:11.648Z,11.15
2023-09-15T04:04:45.630Z,11.85
2023-09-15T04:07:13.373Z,12.88
2023-09-15T04:09:40.198Z,13.18
2023-09-15T04:12:07.432Z,12.73
2023-09-15T04:14:34.295Z,13.50
2023-09-15T04:17:05.152Z,12.18
2023-09-15T04:19:33.122Z,13.48
2023-09-15T04:22:00.305Z,13.13
2023-09-15T04:24:27.234Z,13.45
2023-09-15T04:26:54.055Z,13.95
2023-09-15T04:29:21.607Z,15.25
2023-09-15T04:31:48.470Z,15.15
2023-09-15T04:34:15.588Z,14.48
2023-09-15T04:36:48.875Z,14.82
2023-09-15T04:39:16.109Z,15.55
2023-09-15T04:41:45.948Z,12.30
2023-09-15T04:44:12.697Z,14.02
2023-09-15T04:46:39.950Z,12.63
2023-09-15T04:49:09.484Z,12.73
2023-09-15T04:51:36.489Z,12.15
2023-09-15T04:54:03.560Z,17.73
2023-09-15T04:56:30.437Z,15.02
2023-09-15T04:58:58.206Z,15.68
2023-09-15T05:01:26.655Z,15.73
2023-09-15T05:03:53.663Z,17.77
2023-09-15T05:06:20.707Z,17.55
2023-09-15T05:08:52.946Z,16.73
2023-09-15T05:11:22.851Z,17.75
2023-09-15T05:13:51.711Z,17.50
2023-09-15T05:16:18.615Z,18.33
2023-09-15T05:18:48.930Z,17.70
2023-09-15T05:21:16.577Z,21.05
2023-09-15T05:23:43.389Z,18.30
2023-09-15T05:26:10.241Z,18.70
2023-09-15T05:28:37.059Z,17.52
2023-09-15T05:31:03.977Z,17.20
2023-09-15T05:33:30.985Z,17.77
2023-09-15T05:35:59.955Z,15.60
2023-09-15T05:38:27.737Z,17.77
2023-09-15T05:41:00.035Z,17.63
2023-09-15T05:43:32.447Z,18.92
2023-09-15T05:45:59.307Z,19.67
2023-09-15T05:48:26.243Z,20.73
2023-09-15T05:50:53.878Z,21.67
2023-09-15T05:53:25.954Z,20.88
2023-09-15T05:55:52.782Z,19.70
2023-09-15T05:58:19.756Z,18.25
2023-09-15T06:00:46.704Z,19.27
2023-09-15T06:03:16.524Z,20.48
2023-09-15T06:05:44.237Z,17.40
2023-09-15T06:08:19.807Z,18.42
2023-09-15T06:10:52.657Z,20.92
2023-09-15T06:13:19.900Z,20.10
2023-09-15T06:15:53.656Z,21.02
2023-09-15T06:18:20.748Z,19.45
2023-09-15T06:20:48.554Z,21.20
2023-09-15T06:23:15.388Z,21.50
2023-09-15T06:25:42.176Z,23.45
2023-09-15T06:28:22.120Z,22.17
2023-09-15T06:30:49.584Z,27.10
2023-09-15T06:33:16.739Z,26.85
2023-09-15T06:35:43.846Z,25.20
2023-09-15T06:38:16.584Z,25.48
2023-09-15T06:40:43.487Z,25.15
2023-09-15T06:43:13.325Z,25.40
2023-09-15T06:45:40.455Z,23.38
2023-09-15T06:48:07.544Z,24.95
2023-09-15T06:50:34.457Z,23.08
2023-09-15T06:53:01.416Z,22.35
2023-09-15T06:55:28.243Z,24.50
2023-09-15T06:57:58.717Z,26.80
2023-09-15T07:00:30.258Z,28.15
2023-09-15T07:02:59.525Z,27.90
2023-09-15T07:05:26.666Z,27.83
2023-09-15T07:08:00.006Z,26.95
2023-09-15T07:10:28.177Z,27.10
2023-09-15T07:12:55.062Z,27.38
2023-09-15T07:15:21.899Z,27.77
2023-09-15T07:17:51.775Z,26.95
2023-09-15T07:20:19.363Z,27.83
2023-09-15T07:22:46.131Z,25.15
2023-09-15T07:25:15.459Z,20.33
2023-09-15T07:27:45.459Z,23.05
2023-09-15T07:30:13.563Z,22.83
2023-09-15T07:32:43.710Z,24.63
2023-09-15T07:35:10.668Z,24.85
2023-09-15T07:37:37.530Z,22.30
2023-09-15T07:40:04.699Z,22.98
2023-09-15T07:42:31.568Z,24.90
2023-09-15T07:44:58.379Z,27.08
2023-09-15T07:47:26.909Z,26.00
2023-09-15T07:49:53.973Z,26.90
2023-09-15T07:52:20.864Z,28.05
2023-09-15T07:54:53.389Z,28.50
2023-09-15T07:57:22.229Z,26.10
2023-09-15T07:59:52.878Z,24.40
2023-09-15T08:02:24.747Z,26.85
2023-09-15T08:04:51.691Z,30.13
2023-09-15T08:07:18.701Z,32.33
2023-09-15T08:09:45.649Z,35.78
2023-09-15T08:12:12.541Z,40.17
2023-09-15T08:14:42.480Z,41.90
2023-09-15T08:17:16.536Z,42.38
2023-09-15T08:19:54.005Z,49.10
2023-09-15T08:22:24.972Z,47.88
2023-09-15T08:24:51.848Z,48.63
2023-09-15T08:27:19.325Z,47.75
2023-09-15T08:29:46.400Z,45.38
2023-09-15T08:32:15.626Z,46.45
2023-09-15T08:34:42.493Z,39.67
2023-09-15T08:37:09.492Z,42.20
2023-09-15T08:39:36.322Z,43.67
2023-09-15T08:42:16.277Z,35.38
2023-09-15T08:44:49.285Z,39.67
2023-09-15T08:47:16.466Z,36.00
2023-09-15T08:49:50.185Z,37.15
2023-09-15T08:52:18.357Z,36.60
2023-09-15T08:54:46.038Z,34.53
2023-09-15T08:57:13.311Z,33.72
2023-09-15T08:59:46.369Z,33.58
2023-09-15T09:02:14.730Z,31.67
2023-09-15T09:04:41.590Z,28.33
2023-09-15T09:07:18.881Z,25.63
2023-09-15T09:09:49.166Z,23.95
2023-09-15T09:12:22.635Z,24.25
2023-09-15T09:14:49.504Z,19.75
2023-09-15T09:17:19.777Z,22.27
2023-09-15T09:19:50.394Z,22.05
2023-09-15T09:22:20.860Z,19.98
2023-09-15T09:24:56.264Z,19.13
2023-09-15T09:27:35.606Z,19.05
2023-09-15T09:30:05.071Z,20.75
2023-09-15T09:32:32.188Z,18.65
2023-09-15T09:35:03.556Z,18.40
2023-09-15T09:37:32.289Z,21.35
2023-09-15T09:40:00.273Z,17.90
2023-09-15T09:42:27.184Z,21.38
2023-09-15T09:44:54.084Z,21.83
2023-09-15T09:47:23.997Z,21.80
2023-09-15T09:50:00.570Z,17.13
2023-09-15T09:52:27.798Z,16.10
2023-09-15T09:54:54.578Z,14.90
2023-09-15T09:57:31.754Z,14.77
2023-09-15T09:59:59.020Z,14.88
2023-09-15T10:02:28.001Z,14.27
2023-09-15T10:04:58.351Z,13.82
2023-09-15T10:07:27.110Z,13.35
2023-09-15T10:09:55.115Z,12.45
2023-09-15T10:12:23.422Z,12.52
2023-09-15T10:14:52.874Z,12.23
2023-09-15T10:17:22.747Z,12.82
2023-09-15T10:19:51.599Z,11.75
2023-09-15T10:22:22.030Z,11.02
2023-09-15T10:24:59.408Z,10.35
2023-09-15T10:27:29.064Z,11.30
2023-09-15T10:30:07.986Z,11.95
2023-09-15T10:32:38.561Z,9.73
2023-09-15T10:35:06.243Z,8.70
2023-09-15T10:37:35.135Z,10.20
2023-09-15T10:40:04.293Z,10.02
2023-09-15T10:42:47.400Z,10.52
2023-09-15T10:45:14.466Z,10.73
2023-09-15T10:47:42.441Z,11.02
2023-09-15T10:50:10.645Z,10.98
2023-09-15T10:52:38.937Z,10.80
2023-09-15T10:55:08.486Z,9.07
2023-09-15T10:57:38.020Z,11.45
2023-09-15T11:00:13.708Z,10.45
2023-09-15T11:02:50.540Z,11.13
2023-09-15T11:05:19.460Z,9.15
2023-09-15T11:07:47.919Z,10.50
2023-09-15T11:10:14.744Z,9.63
2023-09-15T11:12:44.229Z,10.00
2023-09-15T11:15:11.969Z,8.80
2023-09-15T11:17:38.873Z,9.20
2023-09-15T11:20:10.683Z,7.97
2023-09-15T11:22:43.174Z,7.00
2023-09-15T11:25:17.655Z,6.60
2023-09-15T11:27:48.299Z,7.30
2023-09-15T11:30:18.688Z,7.20
2023-09-15T11:32:49.617Z,5.13
2023-09-15T11:35:17.029Z,5.88
2023-09-15T11:37:43.934Z,5.88
2023-09-15T11:40:20.672Z,6.07
2023-09-15T11:43:00.411Z,5.90
2023-09-15T11:45:35.665Z,7.28
2023-09-15T11:48:03.381Z,7.55
2023-09-15T11:50:33.685Z,6.10
2023-09-15T11:53:02.212Z,6.03
2023-09-15T11:55:29.448Z,6.53
2023-09-15T11:57:58.106Z,7.07
2023-09-15T12:00:36.760Z,6.45
2023-09-15T12:03:04.096Z,7.80
2023-09-15T12:05:35.450Z,6.50
2023-09-15T12:08:03.430Z,5.32
2023-09-15T12:10:30.492Z,7.40
2023-09-15T12:12:58.792Z,6.35
2023-09-15T12:15:31.707Z,6.25
2023-09-15T12:17:58.632Z,5.60
2023-09-15T12:20:26.215Z,6.20
2023-09-15T12:22:53.306Z,5.70
2023-09-15T12:25:23.901Z,5.28
2023-09-15T12:27:59.133Z,6.00
2023-09-15T12:30:26.940Z,6.65
2023-09-15T12:32:53.966Z,7.15
2023-09-15T12:35:25.367Z,6.40
2023-09-15T12:37:53.618Z,7.00
2023-09-15T12:40:22.650Z,8.13
2023-09-15T12:42:49.466Z,6.43
2023-09-15T12:45:21.678Z,6.47
2023-09-15T12:47:49.107Z,8.52
2023-09-15T12:50:16.112Z,6.55
2023-09-15T12:52:49.070Z,7.43
2023-09-15T12:55:20.027Z,6.90
2023-09-15T12:57:46.857Z,6.93
2023-09-15T13:00:14.074Z,5.88
2023-09-15T13:02:40.966Z,7.40
2023-09-15T13:05:08.495Z,6.70
2023-09-15T13:07:36.857Z,7.07
2023-09-15T13:10:05.796Z,6.07
2023-09-15T13:12:32.882Z,5.97
2023-09-15T13:15:04.689Z,6.13
2023-09-15T13:17:34.758Z,6.00
2023-09-15T13:20:01.969Z,6.13
2023-09-15T13:22:31.548Z,4.78
2023-09-15T13:24:58.388Z,4.80
2023-09-15T13:27:34.537Z,4.80
2023-09-15T13:30:02.445Z,4.95
2023-09-15T13:32:34.238Z,4.95
2023-09-15T13:35:01.306Z,4.72
2023-09-15T13:37:31.586Z,4.93
2023-09-15T13:39:58.474Z,5.13
2023-09-15T13:42:35.292Z,5.47
2023-09-15T13:45:04.142Z,4.85
2023-09-15T13:47:35.805Z,4.15
2023-09-15T13:50:05.194Z,4.22
2023-09-15T13:52:31.961Z,4.55
2023-09-15T13:54:59.643Z,3.50
2023-09-15T13:57:31.709Z,3.70
2023-09-15T13:59:59.592Z,3.22
2023-09-15T14:02:26.527Z,3.80
2023-09-15T14:04:53.530Z,3.17
2023-09-15T14:07:22.529Z,3.58
2023-09-15T14:09:49.396Z,3.92
2023-09-15T14:12:16.370Z,3.88
2023-09-15T14:14:43.204Z,3.53
2023-09-15T14:17:10.039Z,3.80
2023-09-15T14:19:36.917Z,4.32
2023-09-15T14:22:04.442Z,3.33
2023-09-15T14:24:31.642Z,4.10
2023-09-15T14:26:58.544Z,4.35
2023-09-15T14:29:27.688Z,4.10
2023-09-15T14:31:54.449Z,4.38
2023-09-15T14:34:21.249Z,4.18
2023-09-15T14:36:51.323Z,4.38
2023-09-15T14:39:18.156Z,4.07
2023-09-15T14:41:44.997Z,4.53
2023-09-15T14:44:18.928Z,4.22
2023-09-15T14:46:45.787Z,4.35
2023-09-15T14:49:12.690Z,4.50
2023-09-15T14:51:41.658Z,4.45
2023-09-15T14:54:08.662Z,3.80
2023-09-15T14:56:35.581Z,4.20
2023-09-15T14:59:02.333Z,4.00
2023-09-15T15:01:29.457Z,4.30
2023-09-15T15:03:57.055Z,3.75
2023-09-15T15:06:24.292Z,4.63
2023-09-15T15:08:53.346Z,4.20
2023-09-15T15:11:20.324Z,4.80
2023-09-15T15:13:47.795Z,4.80
2023-09-15T15:16:14.849Z,5.05
2023-09-15T15:18:46.761Z,4.65
2023-09-15T15:21:14.462Z,5.15
2023-09-15T15:23:41.302Z,4.55
2023-09-15T15:26:08.777Z,4.68
2023-09-15T15:28:36.792Z,5.22
2023-09-15T15:31:11.303Z,5.20
2023-09-15T15:33:42.272Z,4.80
2023-09-15T15:36:10.372Z,5.07
2023-09-15T15:38:37.961Z,4.78
2023-09-15T15:41:10.219Z,5.25
2023-09-15T15:43:37.840Z,5.77
2023-09-15T15:46:07.848Z,5.32
2023-09-15T15:48:40.609Z,5.93
2023-09-15T15:51:07.793Z,5.43
2023-09-15T15:53:36.499Z,6.10
2023-09-15T15:56:04.286Z,6.07
2023-09-15T15:58:34.137Z,5.72
2023-09-15T16:01:01.178Z,6.13
2023-09-15T16:03:28.346Z,6.10
2023-09-15T16:06:00.693Z,6.13
2023-09-15T16:08:32.562Z,4.47
2023-09-15T16:11:10.394Z,5.57
2023-09-15T16:13:46.621Z,5.68
2023-09-15T16:16:15.589Z,5.80
2023-09-15T16:18:42.541Z,21.70
2023-09-15T16:21:12.355Z,15.73
2023-09-15T16:23:39.701Z,11.63
2023-09-15T16:26:10.204Z,7.05
2023-09-15T16:28:37.138Z,5.15
2023-09-15T16:31:04.006Z,5.13
2023-09-15T16:33:30.974Z,5.07
2023-09-15T16:36:02.347Z,6.00
2023-09-15T16:38:30.017Z,6.38
2023-09-15T16:41:02.277Z,5.78
2023-09-15T16:43:31.971Z,6.45
2023-09-15T16:46:01.218Z,5.50
2023-09-15T16:48:29.853Z,5.78
2023-09-15T16:50:57.944Z,6.45
2023-09-15T16:53:24.969Z,5.47
2023-09-15T16:55:52.718Z,6.07
2023-09-15T16:58:19.577Z,6.07
2023-09-15T17:00:46.763Z,5.90
2023-09-15T17:03:13.827Z,6.10
2023-09-15T17:05:44.299Z,5.88
2023-09-15T17:08:11.116Z,5.97
2023-09-15T17:10:39.046Z,6.82
2023-09-15T17:13:08.080Z,6.53
2023-09-15T17:15:35.008Z,6.70
2023-09-15T17:18:01.920Z,6.85
2023-09-15T17:20:29.764Z,6.15
2023-09-15T17:22:59.005Z,6.35
2023-09-15T17:25:32.389Z,6.38
2023-09-15T17:28:03.320Z,5.78
2023-09-15T17:30:30.161Z,5.78
2023-09-15T17:32:57.049Z,6.13
2023-09-15T17:35:30.419Z,6.70
2023-09-15T17:38:01.808Z,6.78
2023-09-15T17:40:31.728Z,6.45
2023-09-15T17:42:58.626Z,6.70
2023-09-15T17:45:25.640Z,7.70
2023-09-15T17:47:58.611Z,6.53
2023-09-15T17:50:25.852Z,7.75
2023-09-15T17:52:58.238Z,6.63
2023-09-15T17:55:25.381Z,6.53
2023-09-15T17:57:52.371Z,7.30
2023-09-15T18:00:28.870Z,7.03
2023-09-15T18:02:58.618Z,7.03
2023-09-15T18:05:27.592Z,7.30
2023-09-15T18:07:55.092Z,7.15
2023-09-15T18:10:22.019Z,6.82
2023-09-15T18:12:50.875Z,6.50
2023-09-15T18:15:17.842Z,6.75
2023-09-15T18:17:44.812Z,7.57
2023-09-15T18:20:11.833Z,7.05
2023-09-15T18:22:39.058Z,8.30
2023-09-15T18:25:06.603Z,6.95
2023-09-15T18:27:34.502Z,7.38
2023-09-15T18:30:10.615Z,7.05
2023-09-15T18:32:39.917Z,6.95
2023-09-15T18:35:13.078Z,7.57
2023-09-15T18:37:39.912Z,6.78
2023-09-15T18:40:07.431Z,7.82
2023-09-15T18:42:34.303Z,7.50
2023-09-15T18:45:01.200Z,8.00
2023-09-15T18:47:28.071Z,7.72
2023-09-15T18:49:55.062Z,8.32
2023-09-15T18:52:29.220Z,7.65
2023-09-15T18:54:56.238Z,7.68
2023-09-15T18:57:23.161Z,8.07
2023-09-15T18:59:50.198Z,9.40
2023-09-15T19:02:17.035Z,9.10
2023-09-15T19:04:43.917Z,9.10
2023-09-15T19:07:10.951Z,9.68
2023-09-15T19:09:37.901Z,7.38
2023-09-15T19:12:05.071Z,8.48
2023-09-15T19:14:35.662Z,8.52
2023-09-15T19:17:02.617Z,8.75
2023-09-15T19:19:29.419Z,8.93
2023-09-15T19:21:56.420Z,8.85
2023-09-15T19:24:25.174Z,9.00
2023-09-15T19:27:00.940Z,8.52
2023-09-15T19:29:28.851Z,9.25
2023-09-15T19:31:59.639Z,9.52
2023-09-15T19:34:26.641Z,9.02
2023-09-15T19:36:57.022Z,10.18
2023-09-15T19:39:24.047Z,9.40
2023-09-15T19:41:53.166Z,10.13
2023-09-15T19:44:20.026Z,10.82
2023-09-15T19:46:49.340Z,11.85
2023-09-15T19:49:19.368Z,11.95
2023-09-15T19:51:46.314Z,12.00
2023-09-15T19:54:13.230Z,11.57
2023-09-15T19:56:40.383Z,11.30
2023-09-15T19:59:11.582Z,11.38
2023-09-15T20:01:38.502Z,12.00
2023-09-15T20:04:08.420Z,12.55
2023-09-15T20:06:35.371Z,13.52
2023-09-15T20:09:02.230Z,13.32
2023-09-15T20:11:33.176Z,12.80
2023-09-15T20:14:00.007Z,13.50
2023-09-15T20:16:28.530Z,12.38
2023-09-15T20:18:56.425Z,12.35
2023-09-15T20:21:25.722Z,13.68
2023-09-15T20:23:52.572Z,12.80
2023-09-15T20:26:26.961Z,12.20
2023-09-15T20:28:57.303Z,11.90
2023-09-15T20:31:24.152Z,13.48
2023-09-15T20:33:59.501Z,11.68
2023-09-15T20:36:27.719Z,11.82
2023-09-15T20:38:54.525Z,12.27
2023-09-15T20:41:22.797Z,12.80
2023-09-15T20:43:53.168Z,12.85
2023-09-15T20:46:20.086Z,11.80
2023-09-15T20:48:47.161Z,11.68
2023-09-15T20:51:14.296Z,12.57
2023-09-15T20:53:43.693Z,13.40
2023-09-15T20:56:16.896Z,13.02
2023-09-15T20:58:43.688Z,10.87
2023-09-15T21:01:14.837Z,10.32
2023-09-15T21:03:48.266Z,9.32
2023-09-15T21:06:16.035Z,10.18
2023-09-15T21:08:42.859Z,9.23
2023-09-15T21:11:10.412Z,8.95
2023-09-15T21:13:37.267Z,8.68
2023-09-15T21:16:09.895Z,8.68
2023-09-15T21:18:36.921Z,9.07
2023-09-15T21:21:06.502Z,9.63
2023-09-15T21:23:39.412Z,8.80
2023-09-15T21:26:06.351Z,12.35
2023-09-15T21:28:33.215Z,10.27
2023-09-15T21:31:10.005Z,11.05
2023-09-15T21:33:38.935Z,11.57
2023-09-15T21:36:10.998Z,12.68
2023-09-15T21:38:40.603Z,12.23
2023-09-15T21:41:09.348Z,12.80
2023-09-15T21:43:37.356Z,13.13
2023-09-15T21:46:10.989Z,13.48
2023-09-15T21:48:41.055Z,11.88
2023-09-15T21:51:07.874Z,11.90
2023-09-15T21:53:42.197Z,11.95
2023-09-15T21:56:11.850Z,13.00
2023-09-15T21:58:42.742Z,13.20
2023-09-15T22:01:09.524Z,14.20
2023-09-15T22:03:36.576Z,14.65
2023-09-15T22:06:14.988Z,14.75
2023-09-15T22:08:42.082Z,15.05
2023-09-15T22:11:11.724Z,13.43
2023-09-15T22:13:39.508Z,13.45
2023-09-15T22:16:06.549Z,13.38
2023-09-15T22:18:33.498Z,13.35
2023-09-15T22:21:00.333Z,14.38
2023-09-15T22:23:27.423Z,14.75
2023-09-15T22:25:56.925Z,13.43
2023-09-15T22:28:30.821Z,13.57
2023-09-15T22:30:57.790Z,14.27
2023-09-15T22:33:24.701Z,14.10
2023-09-15T22:35:57.829Z,14.23
2023-09-15T22:38:24.650Z,14.33
2023-09-15T22:40:54.199Z,14.65
2023-09-15T22:43:25.283Z,13.55
2023-09-15T22:45:52.158Z,13.77
2023-09-15T22:48:20.428Z,14.48
2023-09-15T22:50:47.378Z,13.73
2023-09-15T22:53:15.879Z,14.02
2023-09-15T22:55:42.701Z,14.38
2023-09-15T22:58:09.527Z,13.88
2023-09-15T23:00:38.497Z,14.38
2023-09-15T23:03:07.965Z,14.82
2023-09-15T23:05:43.853Z,14.93
2023-09-15T23:08:12.118Z,14.57
2023-09-15T23:10:38.913Z,14.68
2023-09-15T23:13:09.795Z,15.60
2023-09-15T23:15:38.792Z,15.05
2023-09-15T23:18:08.681Z,14.88
2023-09-15T23:20:37.377Z,14.35
2023-09-15T23:23:04.407Z,14.82
2023-09-15T23:25:31.231Z,14.40
2023-09-15T23:27:58.115Z,14.57
2023-09-15T23:30:24.969Z,14.68
2023-09-15T23:32:51.782Z,13.73
2023-09-15T23:35:23.335Z,13.15
2023-09-15T23:37:50.203Z,14.32
2023-09-15T23:40:17.161Z,14.02
2023-09-15T23:42:44.171Z,13.80
2023-09-15T23:45:15.916Z,14.27
2023-09-15T23:47:42.768Z,14.07
2023-09-15T23:50:09.703Z,15.15
2023-09-15T23:52:36.541Z,14.02
2023-09-15T23:55:05.045Z,13.30
2023-09-15T23:57:31.888Z,12.27
